Kuujjuaq Airport, Quebec

Past 24 Hour Conditions

Date / Time
(EDT)
Conditions Temp
(°C)
Humidity
(%)
Dew Point
(°C)
Wind
(km/h)
Pressure
(kPa)
Visibility
(km)
03 July 2015
21:00 Light Rain 5 94 4 NNW 14 100.8 2
20:00 Light Drizzle 6 90 5 NNW 13 100.8 19
19:00 Cloudy 7 89 5 NNW 11 100.7 24
18:00 Cloudy 8 87 6 N 16 100.7 24
17:00 Cloudy 8 86 6 N 17 100.7 24
16:00 Cloudy 9   84 7 N 13 100.7 24
15:00 Cloudy 9   84 7 N 13 100.6 24
14:00 Cloudy 9   85 7 N 13 100.6 24
13:00 Cloudy 8 89 6 NNW 15 100.6 24
12:00 Cloudy 7 91 6 N 13 100.6 24
11:00 Light Drizzle 6 94 5 NNW 12 100.6 6
10:00 Light Drizzle 5 94 4 NNW 12 100.6 5
9:00 Light Drizzle 4   94 4 NNW 18 100.6 24
8:00 Light Drizzle 4   96 3 N 15 100.6 16
7:00 Light Drizzle 4   96 3 NNW 18 100.6 10
6:00 Light Drizzle 4   96 3 NNW 22 gust 32 100.6 10
5:00 Light Drizzle 4   97 3 NNW 16 100.6 5
4:00 Light Drizzle 4   97 3 N 14 100.6 3
3:00 Light Drizzle 4   97 4 NNW 12 100.6 3
2:00 Light Rain 5 97 4 N 12 100.7 3
1:00 Light Rain 5 96 4 N 12 100.7 16
00:00 Light Rain 5 96 5 NNW 20 gust 30 100.8 16
02 July 2015
23:00 Light Rain 5 96 5 N 21 100.8 19
22:00 Light Rain 5 95 5 N 19 gust 31 100.9 16
21:00 Light Rain 5 95 5 N 16 101.0 16
N/A Not available
↑ Highest temperature
↓ Lowest temperature

If you require additional historical weather information, please visit Climate Data Online.

What we are doing

Date modified: